createdAt,value
2018-12-16T00:04:36.575Z,40.40
2018-12-16T00:09:39.565Z,40.67
2018-12-16T00:14:42.149Z,43.03
2018-12-16T00:19:44.772Z,48.87
2018-12-16T00:24:49.559Z,37.20
2018-12-16T00:29:56.672Z,35.03
2018-12-16T00:34:59.796Z,40.87
2018-12-16T00:40:02.716Z,37.97
2018-12-16T00:45:05.920Z,38.20
2018-12-16T00:50:08.523Z,34.00
2018-12-16T00:55:11.547Z,32.10
2018-12-16T01:00:15.564Z,36.13
2018-12-16T01:05:18.131Z,32.03
2018-12-16T01:10:22.826Z,33.23
2018-12-16T01:15:25.880Z,34.70
2018-12-16T01:20:28.450Z,31.83
2018-12-16T01:25:33.482Z,32.30
2018-12-16T01:30:36.092Z,28.57
2018-12-16T01:35:39.029Z,34.10
2018-12-16T01:40:41.617Z,30.80
2018-12-16T01:45:44.474Z,34.03
2018-12-16T01:50:47.079Z,31.90
2018-12-16T01:55:51.578Z,37.07
2018-12-16T02:00:54.751Z,33.27
2018-12-16T02:05:57.917Z,31.40
2018-12-16T02:11:01.617Z,35.93
2018-12-16T02:16:04.941Z,33.80
2018-12-16T02:21:07.591Z,29.03
2018-12-16T02:26:10.790Z,37.80
2018-12-16T02:31:13.824Z,36.13
2018-12-16T02:36:16.464Z,31.27
2018-12-16T02:41:19.352Z,34.33
2018-12-16T02:46:22.498Z,31.40
2018-12-16T02:51:25.650Z,34.07
2018-12-16T02:56:28.256Z,35.40
2018-12-16T03:01:31.301Z,42.10
2018-12-16T03:06:33.870Z,38.70
2018-12-16T03:11:36.511Z,37.80
2018-12-16T03:16:40.007Z,37.80
2018-12-16T03:21:42.703Z,38.73
2018-12-16T03:26:45.318Z,36.80
2018-12-16T03:31:49.803Z,39.87
2018-12-16T03:36:52.589Z,44.30
2018-12-16T03:41:58.153Z,43.70
2018-12-16T03:47:00.750Z,40.37
2018-12-16T03:52:08.006Z,45.17
2018-12-16T03:57:10.879Z,43.37
2018-12-16T04:02:13.478Z,42.93
2018-12-16T04:07:22.681Z,45.27
2018-12-16T04:12:25.320Z,46.63
2018-12-16T04:17:28.130Z,47.07
2018-12-16T04:22:30.707Z,56.80
2018-12-16T04:27:33.749Z,50.77
2018-12-16T04:32:36.461Z,44.70
2018-12-16T04:37:39.737Z,45.47
2018-12-16T04:42:42.325Z,54.60
2018-12-16T04:47:44.888Z,57.80
2018-12-16T04:52:48.237Z,57.80
2018-12-16T04:57:50.829Z,60.87
2018-12-16T05:02:54.130Z,65.57
2018-12-16T05:07:57.005Z,56.27
2018-12-16T05:13:00.031Z,58.43
2018-12-16T05:18:03.783Z,54.70
2018-12-16T05:23:06.570Z,62.17
2018-12-16T05:28:09.211Z,55.20
2018-12-16T05:33:12.415Z,60.43
2018-12-16T05:38:15.429Z,56.47
2018-12-16T05:43:18.051Z,59.57
2018-12-16T05:48:20.660Z,51.57
2018-12-16T05:53:23.300Z,52.60
2018-12-16T05:58:25.870Z,54.20
2018-12-16T06:03:28.911Z,49.13
2018-12-16T06:08:31.508Z,50.33
2018-12-16T06:13:34.117Z,42.80
2018-12-16T06:18:38.320Z,49.60
2018-12-16T06:23:43.474Z,47.27
2018-12-16T06:28:52.685Z,44.70
2018-12-16T06:33:55.261Z,46.00
2018-12-16T06:38:57.938Z,49.37
2018-12-16T06:44:00.859Z,48.23
2018-12-16T06:49:03.773Z,49.60
2018-12-16T06:54:07.146Z,52.60
2018-12-16T06:59:10.712Z,50.00
2018-12-16T07:04:15.556Z,51.50
2018-12-16T07:09:18.198Z,54.30
2018-12-16T07:14:21.004Z,49.60
2018-12-16T07:19:24.200Z,47.77
2018-12-16T07:24:27.835Z,57.87
2018-12-16T07:29:30.495Z,46.80
2018-12-16T07:34:33.514Z,48.83
2018-12-16T07:39:36.138Z,48.23
2018-12-16T07:44:38.794Z,57.60
2018-12-16T07:49:41.452Z,50.10
2018-12-16T07:54:44.109Z,46.13
2018-12-16T07:59:46.762Z,62.73
2018-12-16T08:04:49.458Z,68.20
2018-12-16T08:09:53.033Z,67.33
2018-12-16T08:14:56.917Z,55.47
2018-12-16T08:20:01.218Z,51.97
2018-12-16T08:25:04.769Z,55.87
2018-12-16T08:30:07.425Z,57.40
2018-12-16T08:35:10.091Z,51.73
2018-12-16T08:40:12.792Z,53.27
2018-12-16T08:45:16.369Z,57.53
2018-12-16T08:50:19.394Z,55.60
2018-12-16T08:55:22.015Z,53.07
2018-12-16T09:00:24.684Z,54.73
2018-12-16T09:05:28.144Z,48.20
2018-12-16T09:10:34.352Z,52.30
2018-12-16T09:15:36.649Z,51.37
2018-12-16T09:20:39.248Z,48.40
2018-12-16T09:25:42.467Z,52.57
2018-12-16T09:30:45.082Z,47.83
2018-12-16T09:35:47.666Z,45.27
2018-12-16T09:40:50.896Z,55.73
2018-12-16T09:45:53.799Z,50.40
2018-12-16T09:50:58.885Z,48.73
2018-12-16T09:56:02.004Z,51.70
2018-12-16T10:01:08.602Z,44.73
2018-12-16T10:06:14.694Z,47.43
2018-12-16T10:11:17.340Z,63.97
2018-12-16T10:16:20.000Z,51.70
2018-12-16T10:21:25.203Z,51.53
2018-12-16T10:26:28.635Z,47.17
2018-12-16T10:31:32.265Z,53.00
2018-12-16T10:36:35.008Z,52.90
2018-12-16T10:41:37.584Z,53.03
2018-12-16T10:46:40.568Z,44.47
2018-12-16T10:51:43.305Z,42.93
2018-12-16T10:56:45.912Z,41.30
2018-12-16T11:01:48.557Z,43.57
2018-12-16T11:06:51.718Z,41.97
2018-12-16T11:11:54.386Z,41.40
2018-12-16T11:22:24.821Z,43.37
2018-12-16T11:27:27.489Z,40.30
2018-12-16T11:32:31.203Z,35.10
2018-12-16T11:37:34.704Z,34.40
2018-12-16T11:42:37.429Z,31.47
2018-12-16T11:47:40.942Z,34.43
2018-12-16T11:52:43.525Z,30.77
2018-12-16T11:57:46.864Z,24.00
2018-12-16T12:02:49.630Z,26.30
2018-12-16T12:07:52.572Z,30.43
2018-12-16T12:12:55.159Z,29.73
2018-12-16T12:17:57.758Z,21.70
2018-12-16T12:23:00.932Z,25.63
2018-12-16T12:28:04.973Z,33.07
2018-12-16T12:33:08.177Z,49.50
2018-12-16T12:38:10.785Z,29.90
2018-12-16T12:43:14.342Z,31.80
2018-12-16T12:48:16.958Z,19.03
2018-12-16T12:53:19.587Z,17.50
2018-12-16T12:58:22.317Z,21.47
2018-12-16T13:03:25.636Z,20.53
2018-12-16T13:08:28.208Z,14.30
2018-12-16T13:13:31.096Z,37.83
2018-12-16T13:18:33.880Z,14.77
2018-12-16T13:23:36.877Z,14.00
2018-12-16T13:28:39.509Z,12.40
2018-12-16T13:33:42.084Z,15.37
2018-12-16T13:38:44.764Z,13.10
2018-12-16T13:43:47.468Z,18.40
2018-12-16T13:48:53.208Z,22.53
2018-12-16T13:53:56.423Z,18.23
2018-12-16T13:58:59.535Z,14.33
2018-12-16T14:04:02.149Z,16.50
2018-12-16T14:09:06.432Z,14.30
2018-12-16T14:14:09.018Z,21.40
2018-12-16T14:19:11.655Z,19.40
2018-12-16T14:24:14.281Z,18.23
2018-12-16T14:29:17.157Z,18.67
2018-12-16T14:34:19.744Z,18.50
2018-12-16T14:39:22.403Z,14.43
2018-12-16T14:44:25.027Z,18.67
2018-12-16T14:49:35.351Z,20.80
2018-12-16T14:54:39.327Z,22.37
2018-12-16T14:59:42.297Z,17.70
2018-12-16T15:04:44.904Z,20.57
2018-12-16T15:09:47.525Z,23.20
2018-12-16T15:14:50.601Z,18.30
2018-12-16T15:19:53.282Z,18.60
2018-12-16T15:24:56.530Z,19.97
2018-12-16T15:29:59.151Z,18.47
2018-12-16T15:35:02.472Z,24.17
2018-12-16T15:40:06.435Z,27.87
2018-12-16T15:45:09.829Z,26.70
2018-12-16T15:50:12.842Z,27.67
2018-12-16T15:55:15.457Z,32.00
2018-12-16T16:00:22.161Z,28.20
2018-12-16T16:05:24.819Z,32.13
2018-12-16T16:10:27.398Z,25.70
2018-12-16T16:15:30.004Z,32.47
2018-12-16T16:25:48.576Z,31.83
2018-12-16T16:30:51.739Z,28.00
2018-12-16T16:35:54.365Z,27.03
2018-12-16T16:40:57.168Z,28.10
2018-12-16T16:46:00.103Z,25.30
2018-12-16T16:51:02.960Z,31.73
2018-12-16T16:56:09.126Z,33.03
2018-12-16T17:01:11.761Z,37.83
2018-12-16T17:06:14.442Z,36.97
2018-12-16T17:11:17.406Z,45.67
2018-12-16T17:16:22.646Z,43.80
2018-12-16T17:21:25.843Z,40.83
2018-12-16T17:26:30.261Z,39.07
2018-12-16T17:31:33.608Z,43.80
2018-12-16T17:36:36.509Z,38.23
2018-12-16T17:41:40.401Z,41.30
2018-12-16T17:46:43.042Z,50.60
2018-12-16T17:51:45.642Z,47.30
2018-12-16T17:56:48.529Z,67.03
2018-12-16T18:01:51.505Z,47.00
2018-12-16T18:06:54.120Z,46.70
2018-12-16T18:11:56.731Z,42.47
2018-12-16T18:17:01.451Z,36.37
2018-12-16T18:22:04.628Z,34.93
2018-12-16T18:27:07.229Z,44.57
2018-12-16T18:32:10.656Z,41.77
2018-12-16T18:37:13.223Z,33.73
2018-12-16T18:42:15.882Z,38.90
2018-12-16T18:47:18.475Z,43.80
2018-12-16T18:52:21.086Z,46.73
2018-12-16T18:57:26.209Z,39.23
2018-12-16T19:02:29.118Z,41.10
2018-12-16T19:07:31.698Z,41.13
2018-12-16T19:12:34.421Z,50.80
2018-12-16T19:17:37.148Z,51.97
2018-12-16T19:22:39.810Z,49.90
2018-12-16T19:27:42.406Z,47.57
2018-12-16T19:32:45.118Z,47.27
2018-12-16T19:37:47.999Z,44.37
2018-12-16T19:42:50.762Z,44.83
2018-12-16T19:47:53.398Z,46.57
2018-12-16T19:52:56.080Z,43.53
2018-12-16T19:57:58.814Z,40.67
2018-12-16T20:03:01.415Z,40.97
2018-12-16T20:08:04.041Z,37.70
2018-12-16T20:13:06.648Z,38.03
2018-12-16T20:23:16.946Z,46.67
2018-12-16T20:28:20.017Z,43.83
2018-12-16T20:33:23.881Z,45.37
2018-12-16T20:38:27.961Z,39.40
2018-12-16T20:43:33.476Z,45.40
2018-12-16T20:48:36.682Z,37.43
2018-12-16T20:53:40.633Z,41.83
2018-12-16T20:58:43.285Z,42.47
2018-12-16T21:03:45.944Z,43.93
2018-12-16T21:08:51.132Z,50.77
2018-12-16T21:14:01.097Z,41.90
2018-12-16T21:19:04.392Z,40.40
2018-12-16T21:24:07.676Z,44.13
2018-12-16T21:29:12.183Z,33.90
2018-12-16T21:34:14.774Z,34.50
2018-12-16T21:39:17.394Z,35.67
2018-12-16T21:44:28.296Z,39.67
2018-12-16T21:49:30.887Z,36.83
2018-12-16T21:54:34.302Z,42.97
2018-12-16T21:59:37.414Z,35.70
2018-12-16T22:04:40.678Z,36.00
2018-12-16T22:09:43.804Z,37.87
2018-12-16T22:14:46.361Z,38.90
2018-12-16T22:19:55.513Z,37.23
2018-12-16T22:25:05.286Z,40.53
2018-12-16T22:30:09.168Z,32.73
2018-12-16T22:35:12.026Z,36.23
2018-12-16T22:40:15.025Z,40.47
2018-12-16T22:45:17.595Z,40.03
2018-12-16T22:50:20.156Z,40.60
2018-12-16T22:55:23.286Z,38.30
2018-12-16T23:00:26.115Z,37.13
2018-12-16T23:05:28.951Z,30.80
2018-12-16T23:10:32.000Z,34.00
2018-12-16T23:15:34.751Z,34.33
2018-12-16T23:20:37.314Z,31.07
2018-12-16T23:25:40.196Z,25.67
2018-12-16T23:30:42.825Z,51.37
2018-12-16T23:35:45.391Z,30.73
2018-12-16T23:40:48.418Z,28.63
2018-12-16T23:45:50.978Z,23.33
2018-12-16T23:50:54.233Z,26.10
2018-12-16T23:55:57.339Z,21.60
